Arsenal, Arkansas
Current Conditions -  °F | °C
As of 7:53 PM on Wednesday 22 Oct 2014 (Local Time) from KPBF Reporting Station
Clear Clear  
Wind Chill: 14°   Ceiling: Unl
Heat Index: 14°   Visibility: 10mi
Dew Point:   Wind: 7mph
Humidity: 65%   Direction: 50°NE
Pressure: 30.15"   Gusts: NA
Location:  34.193°N, 91.9403°W
Report Text: KPBF 230053Z AUTO 05006KT 10SM CLR 14/08 A3015 RMK AO2 SLP209 T01440078
Loading
Personal Weather Stations






























Interactive Weather Map
Tropical Storm Tracking
New forecast layout! Learn more

10-Day Weather Forecast

Advertisements
Track Severe Weather on mobile